Results For
DQ 25th Anniversary Jersey Genesis Triathlon/Duathlon/AquaBike *#

Port Republic, NJ 08241
Timing Services provided by . Questions About Results? Get in touch!

Use the filters boxes below to search results.

Interactive Version
Place Bib Name                Clock   Gender Age City                State Rank Run 1   Pace  Rank Tran 1  Rank Bike    Rate Rank Tran 2  Rank Run 2   Pace  Chip    Div/Tot Div   Sex/Tot Sex Club                          
                              Time                                                                                                                           Time                                                            
===== === =================== ======= ====== === =================== ===== ==== ======= ===== ==== ======= ==== ======= ==== ==== ======= ==== ======= ===== ======= ======= ===== ======= === ============================= 
1     60  Joe Ricci           1:09:52 M      39  Bensalem            PA    2    0:11:50 5:55  1    0:00:48 2    0:38:01 23.7 2    0:00:38 1    0:18:37 6:00  1:09:52 1/3     TOPMW 1/25    M   Philadelphia Tri Club         
2     244 Quoc Ngo            1:13:22 M      40  Conshohocken        PA    4    0:13:10 6:35  11   0:01:31 1    0:36:30 24.7 10   0:01:00 3    0:21:12 6:50  1:13:22 2/3     TOPMW 2/25    M   Philadelphia Tri Club         
3     314 Dominic McElhinney  1:15:15 M      50  Philadelphia        PA    3    0:12:39 6:20  7    0:01:18 5    0:40:04 22.5 4    0:00:45 2    0:20:30 6:36  1:15:15 3/3     TOPMW 3/25    M                                 
4     228 Sean Quigley        1:15:47 M      42  Philadelphia        PA    6    0:13:23 6:42  2    0:00:58 3    0:39:07 23   1    0:00:38 5    0:21:43 7:00  1:15:47 1/2     M4044 4/25    M   T3 Triathlon                  
5     29  Georgiy Yegazaren   1:18:04 M      37  Staten Island       NY    5    0:13:12 6:36  6    0:01:16 8    0:41:30 21.7 3    0:00:42 4    0:21:26 6:54  1:18:04 1/3     M3539 5/25    M                                 
6     274 Ross Felice         1:19:33 M      56  Margate City        NJ    7    0:13:30 6:45  12   0:01:32 4    0:39:49 22.6 12   0:01:12 8    0:23:31 7:35  1:19:33 1/4     M5559 6/25    M   Bucks County Tri Club         
7     337 Tim Hayburn         1:21:27 M      44  Ardmore             PA    1    0:11:46 5:53  3    0:01:03 13   0:46:06 19.5 5    0:00:46 6    0:21:48 7:01  1:21:27 2/2     M4044 7/25    M                                 
8     15  Anthony Cardoso     1:25:25 M      32  Kearny              NJ    10   0:14:56 7:28  8    0:01:23 9    0:42:30 21.2 7    0:00:57 15   0:25:41 8:16  1:25:25 1/2     M3034 8/25    M                                 
9     143 Robert Reiner       1:26:33 M      29  Sea Girt            NJ    8    0:13:40 6:50  21   0:01:50 10   0:44:16 20.3 21   0:01:29 12   0:25:21 8:10  1:26:33 1/1     M2529 9/25    M                                 
10    256 Margaret Jordan     1:27:27 F      59  Wilmington          DE    14   0:15:51 7:56  30   0:02:09 6    0:41:00 22   17   0:01:20 18   0:27:09 8:45  1:27:27 1/3     TOPFW 1/13    F                                 
11    356 Christina Mayrhofer 1:27:47 F      46  Corbin City         NJ    12   0:15:07 7:34  9    0:01:25 12   0:45:28 19.8 8    0:00:58 11   0:24:50 8:00  1:27:47 2/3     TOPFW 2/13    F                                 
12    9   Bob Peck            1:27:54 M      57  Howell              NJ    15   0:15:53 7:56  4    0:01:10 11   0:44:21 20.3 9    0:00:58 13   0:25:35 8:15  1:27:54 2/4     M5559 10/25   M                                 
13    342 DAN MARION          1:28:09 M      62  Pottstown           PA    22   0:17:16 8:38  10   0:01:27 7    0:41:05 21.9 14   0:01:15 17   0:27:08 8:44  1:28:09 1/3     M6064 11/25   M   Watts Up Cycling              
14    234 Matthew Walters     1:28:48 M      54  Richboro            PA    11   0:14:57 7:29  19   0:01:49 14   0:46:22 19.4 23   0:01:40 9    0:24:03 7:45  1:28:48 1/3     M5054 12/25   M   Bucks County Tri Club         
15    128 Alexandra Renninger 1:30:35 F      53  Glen Mills          PA    13   0:15:19 7:40  26   0:02:05 17   0:47:22 19   15   0:01:17 10   0:24:34 7:55  1:30:35 3/3     TOPFW 3/13    F                                 
16    134 Donna Grocki        1:33:58 F      62  Hammonton           NJ    9    0:14:35 7:18  36   0:02:47 21   0:49:28 18.2 38   0:03:47 7    0:23:23 7:32  1:33:58 1/1     F6064 4/13    F   No Limits Endurance Coaching  
17    212 Rudy Rinderer       1:34:45 M      70  Pine Beach          NJ    25   0:17:47 8:54  5    0:01:12 19   0:47:39 18.9 6    0:00:52 19   0:27:17 8:47  1:34:45 1/2     M7074 13/25   M   Ocean Running Club            
18    353 Robert Allen        1:35:08 M      53  Mount Royal         NJ    18   0:16:36 8:18  25   0:01:57 15   0:46:39 19.3 28   0:01:56 20   0:28:02 9:02  1:35:08 2/3     M5054 14/25   M   Williamstown Tri Club         
19    87  Harald Snik         1:35:46 M      57  Maplewood           NJ    19   0:16:37 8:19  17   0:01:43 18   0:47:23 19   20   0:01:28 21   0:28:37 9:13  1:35:46 3/4     M5559 15/25   M                                 
20    255 Christopher McGurk  1:36:26 M      60  West Chester        PA    17   0:16:35 8:18  14   0:01:40 25   0:50:27 17.8 16   0:01:18 16   0:26:29 8:32  1:36:26 2/3     M6064 16/25   M                                 
21    220 Brian Zobel         1:38:37 M      64  Haddonfield         NJ    26   0:17:55 8:58  13   0:01:33 16   0:47:06 19.1 11   0:01:09 26   0:30:57 9:58  1:38:37 3/3     M6064 17/25   M   Tri856                        
22    282 James Drumm         1:40:06 M      57  Quarryville         PA    23   0:17:18 8:39  15   0:01:41 22   0:49:29 18.2 18   0:01:23 24   0:30:17 9:45  1:40:06 4/4     M5559 18/25   M                                 
23    22  Theophilus Sample   1:42:21 M      48  Galloway            NJ    20   0:17:05 8:33  37   0:02:58 24   0:49:53 18   37   0:03:23 22   0:29:04 9:22  1:42:21 1/2     M4549 19/25   M                                 
24    361 Daniel Hemmerlin    1:45:02 M      30  West Milford        NJ    16   0:16:10 8:05  23   0:01:52 37   1:00:01 15   19   0:01:26 14   0:25:36 8:15  1:45:02 2/2     M3034 20/25   M                                 
25    414 Matthew Petitt      1:45:06 M      38  Sewell              NJ    24   0:17:26 8:43  33   0:02:33 20   0:48:26 18.6 35   0:03:00 31   0:33:44 10:52 1:45:06 2/3     M3539 21/25   M                                 
26    264 Lauren Wilhelm      1:45:15 F      33  Philadelphia        PA    27   0:18:16 9:08  28   0:02:07 23   0:49:31 18.2 26   0:01:42 30   0:33:40 10:51 1:45:15 1/1     F3034 5/13    F   Cadence Racing                
27    415 Theresa Kauffman    1:45:23 F      59  Landenberg          PA    30   0:19:25 9:42  27   0:02:05 26   0:50:27 17.8 24   0:01:41 27   0:31:47 10:14 1:45:23 1/3     F5559 6/13    F                                 
28    285 Tim Carr            1:47:36 M      47  Conshohocken        PA    21   0:17:09 8:35  16   0:01:41 31   0:53:53 16.7 25   0:01:42 28   0:33:13 10:42 1:47:36 2/2     M4549 22/25   M                                 
29    286 Jeffrey Blickos     1:48:05 M      36  Williamstown        NJ    29   0:18:18 9:09  34   0:02:34 32   0:54:37 16.5 33   0:02:53 23   0:29:45 9:35  1:48:05 3/3     M3539 23/25   M                                 
30    269 Jo Ann Everett      1:50:32 F      68  Toms River          NJ    28   0:18:17 9:09  18   0:01:47 36   0:57:24 15.7 30   0:02:25 25   0:30:40 9:53  1:50:32 1/1     F6569 7/13    F                                 
31    343 Patty Woram         1:52:48 F      56  Toms River          NJ    32   0:20:58 10:29 29   0:02:09 29   0:53:17 16.9 31   0:02:40 32   0:33:47 10:53 1:52:48 2/3     F5559 8/13    F   Ocean Running Club            
32    349 Tara Emrick         1:54:10 F      48  Woolwich            NJ    33   0:21:14 10:37 35   0:02:41 27   0:50:59 17.7 29   0:02:10 34   0:37:08 11:57 1:54:10 1/1     F4549 9/13    F   Mullica Hill Women's Tri Club 
33    39  Tom Resch           1:54:29 M      72  West Creek          NJ    31   0:20:56 10:28 22   0:01:51 35   0:56:57 15.8 22   0:01:31 29   0:33:15 10:42 1:54:29 2/2     M7074 24/25   M   LBI Tri Club                  
34    360 Elizabeth Owens     1:55:02 F      40  Williamstown        NJ    34   0:21:15 10:38 31   0:02:25 28   0:51:49 17.4 32   0:02:53 33   0:36:42 11:49 1:55:02 1/1     F4044 10/13   F                                 
35    141 Trish Birmingham    2:02:49 F      39  Corbin City         NJ    35   0:22:42 11:21 24   0:01:55 34   0:55:09 16.3 34   0:02:56 35   0:40:09 12:56 2:02:49 1/1     F3539 11/13   F                                 
36    334 John Manzione       2:05:00 M      54  Egg Harbor Township NJ    37   0:24:10 12:05 32   0:02:28 30   0:53:18 16.9 36   0:03:06 36   0:42:00 13:32 2:05:00 3/3     M5054 25/25   M   No Limits Endurance Coaching  
37    114 Elizabeth Dare      2:12:30 F      56  Mullica Hill        NJ    38   0:25:56 12:58 38   0:05:04 33   0:54:52 16.4 27   0:01:56 38   0:44:43 14:24 2:12:30 3/3     F5559 12/13   F   WAVES                         
38    35  Damali Thomas       2:27:18 F      42  Wilmington          DE    36   0:23:03 11:32 20   0:01:49 38   1:17:52 11.6 13   0:01:13 37   0:43:22 13:58 2:27:18 1/1     ATHEN 13/13   F                                 

If you continue to use this site, you consent to use all cookies. We use cookies to offer you a better browsing experience. Read how we use cookies and how you can control them by visiting our Privacy Policy.

If you continue to use this site, you consent to use all cookies.